Time;durP1;ratioP1;P1;durP2;ratioP2;P2;SDS_P1;SDS_P2;PMS_P1;PMS_P2;Temp;Humidity;BMP_temperature;BMP_pressure;BME280_temperature;BME280_humidity;BME280_pressure;Samples;Min_cycle;Max_cycle;Signal;HPM_P1;HPM_P2
2022/10/09 00:02:23;;;;;;;12.85;3.80;;;6.00;99.90;;;;;;4960788;29;20032;-95
2022/10/09 00:04:49;;;;;;;11.40;3.83;;;6.00;99.90;;;;;;4960535;29;20034;-94
2022/10/09 00:07:14;;;;;;;14.10;4.57;;;6.00;99.90;;;;;;4962275;29;20031;-93
2022/10/09 00:09:40;;;;;;;18.58;4.43;;;5.90;99.90;;;;;;4963098;28;20023;-91
2022/10/09 00:12:07;;;;;;;14.63;5.15;;;5.90;99.90;;;;;;4962976;29;20023;-92
2022/10/09 00:14:33;;;;;;;18.55;4.88;;;5.90;99.90;;;;;;4962117;29;20047;-95
2022/10/09 00:16:59;;;;;;;12.90;5.50;;;5.90;99.90;;;;;;4978305;29;20054;-96
2022/10/09 00:19:27;;;;;;;19.55;5.00;;;5.80;99.90;;;;;;4961268;29;20046;-94
2022/10/09 00:21:53;;;;;;;17.15;5.80;;;5.80;99.90;;;;;;4959954;29;20043;-95
2022/10/09 00:24:29;;;;;;;17.42;7.50;;;5.70;99.90;;;;;;4976502;29;20027;-94
2022/10/09 00:26:54;;;;;;;33.55;7.20;;;5.70;99.90;;;;;;4959377;29;20055;-96
2022/10/09 00:29:20;;;;;;;27.25;7.18;;;5.70;99.90;;;;;;4959713;29;20020;-94
2022/10/09 00:31:48;;;;;;;31.35;7.30;;;5.60;99.90;;;;;;4958691;29;20051;-95
2022/10/09 00:34:15;;;;;;;26.48;6.75;;;5.50;99.90;;;;;;4958524;29;20053;-94
2022/10/09 00:36:42;;;;;;;33.35;9.63;;;5.50;99.90;;;;;;4959759;29;20602;-95
2022/10/09 00:39:08;;;;;;;16.60;6.05;;;5.40;99.90;;;;;;4958891;29;20052;-94
2022/10/09 00:41:34;;;;;;;34.92;8.05;;;5.40;99.90;;;;;;4959887;29;20022;-95
2022/10/09 00:44:02;;;;;;;47.65;9.10;;;5.30;99.90;;;;;;4959899;29;20043;-96
2022/10/09 00:46:36;;;;;;;65.82;7.65;;;5.20;99.90;;;;;;4961652;29;20027;-94
2022/10/09 00:49:19;;;;;;;23.65;6.53;;;5.10;99.90;;;;;;4960597;29;20039;-94
2022/10/09 00:51:51;;;;;;;27.65;6.13;;;5.00;99.90;;;;;;4961536;29;20012;-92
2022/10/09 00:54:23;;;;;;;17.00;5.60;;;5.00;99.90;;;;;;4961633;29;20034;-93
2022/10/09 00:56:52;;;;;;;20.20;6.28;;;4.90;99.90;;;;;;4962023;29;20041;-95
2022/10/09 00:59:18;;;;;;;16.10;6.50;;;4.90;99.90;;;;;;4978857;28;20114;-92
2022/10/09 01:01:46;;;;;;;18.48;5.50;;;4.90;99.90;;;;;;4962067;29;20055;-94
2022/10/09 01:04:11;;;;;;;13.80;5.35;;;4.90;99.90;;;;;;4962722;28;20090;-94
2022/10/09 01:06:49;;;;;;;9.57;5.15;;;4.80;99.90;;;;;;4962555;28;20028;-92
2022/10/09 01:09:24;;;;;;;12.10;4.70;;;4.80;99.90;;;;;;4979373;28;20035;-91
2022/10/09 01:12:06;;;;;;;13.88;5.20;;;4.80;99.90;;;;;;4962804;29;20103;-93
2022/10/09 01:14:43;;;;;;;14.90;5.47;;;4.80;99.90;;;;;;4960094;29;20031;-96
2022/10/09 01:17:38;;;;;;;17.73;5.05;;;4.80;99.90;;;;;;4961875;28;20026;-92
2022/10/09 01:20:17;;;;;;;11.45;4.15;;;4.80;99.90;;;;;;4962711;29;20024;-91
2022/10/09 01:23:14;;;;;;;9.20;4.60;;;4.70;99.90;;;;;;4962003;28;20043;-93
2022/10/09 01:25:47;;;;;;;10.85;4.53;;;4.70;99.90;;;;;;4962626;29;20087;-94
2022/10/09 01:28:16;;;;;;;13.15;4.32;;;4.70;99.90;;;;;;4962371;29;20041;-94
2022/10/09 01:30:42;;;;;;;12.70;4.45;;;4.70;99.90;;;;;;4945656;29;20015;-91
2022/10/09 01:33:09;;;;;;;19.48;6.05;;;4.70;99.90;;;;;;4961586;29;20047;-93
2022/10/09 01:35:36;;;;;;;8.82;4.45;;;4.70;99.90;;;;;;4962571;29;20031;-93
2022/10/09 01:38:05;;;;;;;11.52;4.80;;;4.70;99.90;;;;;;4962028;29;20087;-93
2022/10/09 01:40:32;;;;;;;10.75;4.18;;;4.70;99.90;;;;;;4962027;28;20016;-94
2022/10/09 01:42:58;;;;;;;18.90;4.70;;;4.70;99.90;;;;;;4946669;29;20031;-94
2022/10/09 01:45:24;;;;;;;21.52;5.03;;;4.70;99.90;;;;;;4962455;28;20023;-93
2022/10/09 01:47:51;;;;;;;12.07;4.57;;;4.70;99.90;;;;;;4962427;28;20023;-96
2022/10/09 01:50:26;;;;;;;12.73;4.00;;;4.70;99.90;;;;;;4977201;28;20034;-95
2022/10/09 01:53:01;;;;;;;20.17;4.43;;;4.70;99.90;;;;;;4961017;28;20083;-92
2022/10/09 01:55:58;;;;;;;20.15;3.47;;;4.60;99.90;;;;;;4965190;29;20055;-94
2022/10/09 01:58:40;;;;;;;15.30;4.22;;;4.60;99.90;;;;;;4966176;28;20031;-94
2022/10/09 02:01:21;;;;;;;8.05;3.38;;;4.50;99.90;;;;;;4979678;28;20039;-95
2022/10/09 02:03:50;;;;;;;8.95;3.70;;;4.50;99.90;;;;;;4981098;29;20099;-95
2022/10/09 02:06:17;;;;;;;10.77;3.85;;;4.50;99.90;;;;;;4981115;29;20035;-95
2022/10/09 02:08:46;;;;;;;10.02;3.60;;;4.50;99.90;;;;;;4978509;29;20039;-96
2022/10/09 02:11:16;;;;;;;7.80;3.17;;;4.50;99.90;;;;;;4975254;29;20047;-95
2022/10/09 02:13:43;;;;;;;4.88;3.03;;;4.50;99.90;;;;;;4970710;29;20027;-93
2022/10/09 02:16:29;;;;;;;6.20;3.10;;;4.40;99.90;;;;;;4967466;29;20179;-95
2022/10/09 02:19:01;;;;;;;5.65;3.45;;;4.40;99.90;;;;;;4965831;29;20035;-95
2022/10/09 02:21:46;;;;;;;6.00;3.10;;;4.40;99.90;;;;;;4967207;29;20030;-94
2022/10/09 02:24:16;;;;;;;5.25;3.10;;;4.40;99.90;;;;;;4965345;29;20051;-94
2022/10/09 02:26:43;;;;;;;4.85;3.35;;;4.40;99.90;;;;;;4967113;29;20027;-94
2022/10/09 02:29:10;;;;;;;5.60;2.83;;;4.30;99.90;;;;;;4968049;29;20039;-96
2022/10/09 02:31:38;;;;;;;6.55;3.00;;;4.30;99.90;;;;;;4964240;29;20023;-94
2022/10/09 02:34:10;;;;;;;10.88;3.40;;;4.20;99.90;;;;;;4963118;29;20023;-95
2022/10/09 02:36:37;;;;;;;29.65;4.53;;;4.20;99.90;;;;;;4963231;29;20073;-94
2022/10/09 02:39:03;;;;;;;6.90;3.65;;;4.20;99.90;;;;;;4972130;29;20046;-93
2022/10/09 02:41:29;;;;;;;28.15;3.25;;;4.10;99.90;;;;;;4961943;29;20051;-95
2022/10/09 02:43:55;;;;;;;12.02;3.30;;;4.00;99.90;;;;;;4961058;29;20058;-94
2022/10/09 02:46:21;;;;;;;9.98;3.25;;;4.00;99.90;;;;;;4959736;29;20024;-95
2022/10/09 02:48:47;;;;;;;15.85;3.60;;;4.00;99.90;;;;;;4962980;28;20027;-95
2022/10/09 02:51:13;;;;;;;25.02;4.68;;;4.00;99.90;;;;;;4961838;29;20118;-95
2022/10/09 02:53:39;;;;;;;10.45;2.78;;;4.00;99.90;;;;;;4962905;29;20027;-95
2022/10/09 02:56:05;;;;;;;10.73;3.08;;;3.90;99.90;;;;;;4962604;29;20031;-96
2022/10/09 02:58:32;;;;;;;14.93;3.97;;;3.90;99.90;;;;;;4961217;29;20039;-94
2022/10/09 03:00:58;;;;;;;7.78;3.25;;;3.80;99.90;;;;;;4961021;29;20134;-95
2022/10/09 03:03:24;;;;;;;5.72;3.30;;;3.80;99.90;;;;;;4959532;29;20058;-94
2022/10/09 03:06:12;;;;;;;8.57;3.40;;;3.80;99.90;;;;;;4958867;28;20043;-95
2022/10/09 03:08:41;;;;;;;9.10;3.17;;;3.80;99.90;;;;;;4961674;29;20035;-94
2022/10/09 03:11:07;;;;;;;9.30;3.58;;;3.80;99.90;;;;;;4966072;29;20032;-94
2022/10/09 03:13:33;;;;;;;8.65;3.60;;;3.70;99.90;;;;;;4972277;29;20035;-94
2022/10/09 03:16:10;;;;;;;4.95;2.70;;;3.70;99.90;;;;;;4973629;29;20571;-95
2022/10/09 03:18:36;;;;;;;6.93;3.17;;;3.70;99.90;;;;;;4961787;29;20051;-94
2022/10/09 03:21:13;;;;;;;6.13;3.35;;;3.70;99.90;;;;;;4958152;29;20035;-94
2022/10/09 03:23:39;;;;;;;7.40;2.97;;;3.70;99.90;;;;;;4960214;29;20051;-94
2022/10/09 03:26:08;;;;;;;8.43;3.40;;;3.70;99.90;;;;;;4959280;29;20023;-95
2022/10/09 03:28:39;;;;;;;6.93;3.20;;;3.60;99.90;;;;;;4957444;29;20090;-95
2022/10/09 03:31:05;;;;;;;6.82;2.92;;;3.60;99.90;;;;;;4956811;29;20365;-92
2022/10/09 03:33:32;;;;;;;5.85;3.03;;;3.60;99.90;;;;;;4957825;29;20027;-94
2022/10/09 03:35:58;;;;;;;4.28;2.65;;;3.60;99.90;;;;;;4958525;28;20038;-93
2022/10/09 03:38:23;;;;;;;11.18;3.42;;;3.50;99.90;;;;;;4957154;29;20027;-93
2022/10/09 03:40:49;;;;;;;12.00;3.42;;;3.50;99.90;;;;;;4959049;29;20237;-94
2022/10/09 03:43:15;;;;;;;9.52;4.00;;;3.50;99.90;;;;;;4959846;29;20078;-94
2022/10/09 03:45:41;;;;;;;67.25;5.13;;;3.50;99.90;;;;;;4959424;29;20019;-95
2022/10/09 03:48:10;;;;;;;29.17;4.40;;;3.50;99.90;;;;;;4958051;29;20190;-93
2022/10/09 03:50:37;;;;;;;31.90;4.20;;;3.50;99.90;;;;;;4956503;29;20016;-94
2022/10/09 03:53:03;;;;;;;43.70;5.93;;;3.40;99.90;;;;;;4956774;29;20059;-94
2022/10/09 03:55:29;;;;;;;16.85;3.50;;;3.40;99.90;;;;;;4957465;29;20024;-94
2022/10/09 03:57:54;;;;;;;5.20;3.05;;;3.40;99.90;;;;;;4957179;29;20612;-95
2022/10/09 04:00:20;;;;;;;5.53;3.20;;;3.40;99.90;;;;;;4956758;28;20043;-93
2022/10/09 04:02:46;;;;;;;10.93;3.40;;;3.40;99.90;;;;;;4956128;29;20106;-94
2022/10/09 04:05:11;;;;;;;5.68;2.70;;;3.30;99.90;;;;;;4956808;29;20110;-94
2022/10/09 04:07:37;;;;;;;8.40;3.00;;;3.30;99.90;;;;;;4956778;29;20054;-93
2022/10/09 04:10:04;;;;;;;11.65;4.70;;;3.30;99.90;;;;;;4956773;29;20035;-93
2022/10/09 04:12:29;;;;;;;5.22;3.10;;;3.20;99.90;;;;;;4956368;29;20057;-92
2022/10/09 04:14:55;;;;;;;9.38;2.85;;;3.20;99.90;;;;;;4956285;29;20090;-93
2022/10/09 04:17:20;;;;;;;27.27;3.22;;;3.20;99.90;;;;;;4950456;29;20035;-93
2022/10/09 04:19:46;;;;;;;11.13;3.20;;;3.20;99.90;;;;;;4942845;29;20066;-94
2022/10/09 04:22:12;;;;;;;9.15;2.80;;;3.20;99.90;;;;;;4940316;29;20032;-92
2022/10/09 04:24:37;;;;;;;8.50;2.97;;;3.10;99.90;;;;;;4940131;29;20473;-94
2022/10/09 04:27:03;;;;;;;13.50;3.92;;;3.10;99.90;;;;;;4940001;29;20027;-93
2022/10/09 04:29:29;;;;;;;7.55;3.45;;;3.10;99.90;;;;;;4939983;29;20311;-93
2022/10/09 04:31:55;;;;;;;4.32;2.70;;;3.10;99.90;;;;;;4940717;29;20034;-94
2022/10/09 04:34:20;;;;;;;4.80;2.50;;;3.00;99.90;;;;;;4939467;29;20099;-95
2022/10/09 04:36:46;;;;;;;10.50;3.97;;;3.00;99.90;;;;;;4940363;29;20023;-93
2022/10/09 04:39:12;;;;;;;7.28;2.38;;;3.00;99.90;;;;;;4939749;29;20117;-94
2022/10/09 04:41:37;;;;;;;9.45;2.58;;;2.90;99.90;;;;;;4940249;29;20063;-94
2022/10/09 04:44:03;;;;;;;10.30;3.20;;;3.00;99.90;;;;;;4939988;29;20647;-94
2022/10/09 04:46:29;;;;;;;9.05;3.35;;;3.00;99.90;;;;;;4939135;29;20043;-94
2022/10/09 04:48:55;;;;;;;9.70;2.72;;;2.90;99.90;;;;;;4939229;29;20371;-95
2022/10/09 04:51:20;;;;;;;9.63;3.03;;;2.90;99.90;;;;;;4939561;29;20034;-94
2022/10/09 04:53:46;;;;;;;6.20;3.22;;;2.90;99.90;;;;;;4940096;29;20031;-92
2022/10/09 04:56:22;;;;;;;7.88;2.63;;;2.80;99.90;;;;;;4939413;29;20031;-96
2022/10/09 04:58:48;;;;;;;13.00;2.83;;;2.80;99.90;;;;;;4940573;28;20027;-93
2022/10/09 05:01:20;;;;;;;7.05;2.40;;;2.80;99.90;;;;;;4944305;29;20048;-93
2022/10/09 05:03:46;;;;;;;5.00;2.42;;;2.70;99.90;;;;;;4973568;29;20031;-92
2022/10/09 05:06:13;;;;;;;4.18;2.53;;;2.70;99.90;;;;;;4960155;29;20031;-93
2022/10/09 05:08:41;;;;;;;6.38;2.60;;;2.70;99.90;;;;;;4955479;29;20023;-96
2022/10/09 05:11:12;;;;;;;4.50;2.58;;;2.70;99.90;;;;;;4956946;28;20047;-92
2022/10/09 05:13:43;;;;;;;7.97;2.70;;;2.70;99.90;;;;;;4956128;29;20031;-92
2022/10/09 05:16:10;;;;;;;;;;;2.70;99.90;;;;;;4955922;29;20039;-94
2022/10/09 05:18:45;;;;;;;5.97;2.47;;;2.70;99.90;;;;;;4955041;29;19934;-94
2022/10/09 05:21:11;;;;;;;4.90;2.53;;;2.70;99.90;;;;;;4955252;29;20027;-93
2022/10/09 05:23:37;;;;;;;5.55;2.75;;;2.70;99.90;;;;;;4954478;29;20042;-93
2022/10/09 05:26:05;;;;;;;5.45;3.00;;;2.70;99.90;;;;;;4954982;29;20034;-94
2022/10/09 05:28:34;;;;;;;8.98;2.88;;;2.70;99.90;;;;;;4954467;29;20035;-92
2022/10/09 05:31:01;;;;;;;6.82;3.05;;;2.70;99.90;;;;;;4955399;29;20030;-93
2022/10/09 05:33:27;;;;;;;5.47;2.40;;;2.70;99.90;;;;;;4956022;29;20034;-92
2022/10/09 05:35:55;;;;;;;6.95;2.90;;;2.70;99.90;;;;;;4954308;29;20536;-92
2022/10/09 05:38:22;;;;;;;4.55;2.45;;;2.60;99.90;;;;;;4955373;29;20032;-93
2022/10/09 05:40:55;;;;;;;5.95;2.40;;;2.60;99.90;;;;;;4956833;29;20031;-92
2022/10/09 05:43:31;;;;;;;4.68;2.60;;;2.70;99.90;;;;;;4956992;29;20070;-93
2022/10/09 05:46:06;;;;;;;4.03;2.97;;;2.60;99.90;;;;;;4955061;29;20038;-92
2022/10/09 05:48:32;;;;;;;9.80;2.83;;;2.60;99.90;;;;;;4955359;29;20031;-94
2022/10/09 05:51:20;;;;;;;5.18;2.60;;;2.60;99.90;;;;;;4955335;29;20030;-93
2022/10/09 05:53:47;;;;;;;7.15;2.58;;;2.60;99.90;;;;;;4955563;29;20441;-95
2022/10/09 05:56:14;;;;;;;15.10;3.08;;;2.60;99.90;;;;;;4955297;29;20063;-92
2022/10/09 05:58:41;;;;;;;7.30;3.65;;;2.50;99.90;;;;;;4955302;29;20370;-93
2022/10/09 06:01:07;;;;;;;6.80;3.28;;;2.50;99.90;;;;;;4951078;28;20403;-93
2022/10/09 06:03:34;;;;;;;4.57;2.30;;;2.50;99.90;;;;;;4938765;29;20043;-93
2022/10/09 06:06:06;;;;;;;8.05;3.20;;;2.50;99.90;;;;;;4939683;29;20038;-93
2022/10/09 06:08:34;;;;;;;8.77;3.08;;;2.60;99.90;;;;;;4938905;29;20082;-94
2022/10/09 06:11:11;;;;;;;21.50;3.30;;;2.50;99.90;;;;;;4939349;29;20563;-93
2022/10/09 06:13:36;;;;;;;12.15;2.72;;;2.50;99.90;;;;;;4939449;29;20027;-94
2022/10/09 06:16:02;;;;;;;5.47;2.67;;;2.50;99.90;;;;;;4938631;29;20481;-92
2022/10/09 06:18:28;;;;;;;6.13;2.80;;;2.40;99.90;;;;;;4939265;29;20035;-94
2022/10/09 06:20:56;;;;;;;6.50;2.88;;;2.40;99.90;;;;;;4956795;29;20031;-95
2022/10/09 06:23:22;;;;;;;3.90;2.67;;;2.30;99.90;;;;;;4940285;29;20035;-94
2022/10/09 06:25:56;;;;;;;4.78;2.30;;;2.40;99.90;;;;;;4957109;29;20027;-94
2022/10/09 06:28:24;;;;;;;8.65;3.15;;;2.40;99.90;;;;;;4940101;29;20027;-94
2022/10/09 06:30:50;;;;;;;7.05;2.97;;;2.50;99.90;;;;;;4944442;29;20031;-94
2022/10/09 06:33:16;;;;;;;5.03;3.05;;;2.60;99.90;;;;;;4944924;29;20023;-93
2022/10/09 06:35:42;;;;;;;8.15;3.88;;;2.60;99.90;;;;;;4946366;29;20122;-95
2022/10/09 06:38:08;;;;;;;8.55;4.13;;;2.60;99.90;;;;;;4961035;29;20034;-95
2022/10/09 06:40:37;;;;;;;11.52;4.60;;;2.60;99.90;;;;;;4942297;29;20035;-93
2022/10/09 06:43:06;;;;;;;6.15;3.22;;;2.70;99.90;;;;;;4946879;29;20063;-95
2022/10/09 06:45:36;;;;;;;11.30;5.25;;;2.60;99.90;;;;;;4944299;29;20027;-94
2022/10/09 06:48:02;;;;;;;7.95;4.25;;;2.70;99.90;;;;;;4945564;29;20031;-93
2022/10/09 06:50:29;;;;;;;10.45;4.97;;;2.60;99.90;;;;;;4953025;29;20110;-92
2022/10/09 06:52:54;;;;;;;14.07;5.45;;;2.60;99.90;;;;;;4954372;29;20103;-93
2022/10/09 06:55:23;;;;;;;16.63;5.70;;;2.60;99.90;;;;;;4958739;29;20015;-94
2022/10/09 06:57:49;;;;;;;14.07;5.15;;;2.60;99.90;;;;;;4957421;29;20031;-95
2022/10/09 07:00:14;;;;;;;7.30;4.50;;;2.60;99.90;;;;;;4955861;28;20040;-93
2022/10/09 07:02:41;;;;;;;8.90;4.80;;;2.60;99.90;;;;;;4957097;28;20461;-92
2022/10/09 07:05:07;;;;;;;11.18;5.03;;;2.60;99.90;;;;;;4959510;28;20027;-94
2022/10/09 07:07:33;;;;;;;11.10;4.80;;;2.70;99.90;;;;;;4959983;28;20034;-94
2022/10/09 07:09:58;;;;;;;8.55;4.35;;;2.70;99.90;;;;;;4953570;28;20034;-95
2022/10/09 07:12:24;;;;;;;12.20;4.60;;;2.70;99.90;;;;;;4957968;28;20387;-94
2022/10/09 07:14:49;;;;;;;14.48;4.40;;;2.80;99.90;;;;;;4958725;28;20480;-93
2022/10/09 07:17:15;;;;;;;7.15;3.17;;;2.80;99.90;;;;;;4963815;28;20074;-94
2022/10/09 07:19:41;;;;;;;8.05;4.05;;;2.80;99.90;;;;;;4963037;28;20201;-93
2022/10/09 07:22:10;;;;;;;7.88;3.92;;;2.80;99.90;;;;;;4961405;28;20094;-94
2022/10/09 07:24:36;;;;;;;13.98;4.07;;;2.90;99.90;;;;;;4969305;28;20019;-92
2022/10/09 07:27:01;;;;;;;7.88;4.50;;;2.90;99.90;;;;;;4970542;28;20019;-90
2022/10/09 07:29:27;;;;;;;10.10;4.55;;;2.90;99.90;;;;;;4973384;28;20031;-93
2022/10/09 07:31:52;;;;;;;7.45;4.57;;;3.00;99.90;;;;;;4965954;28;20031;-93
2022/10/09 07:34:18;;;;;;;7.90;4.30;;;3.00;99.90;;;;;;4951253;28;20041;-92
2022/10/09 07:36:44;;;;;;;7.38;4.38;;;3.10;99.90;;;;;;4957170;28;20113;-94
2022/10/09 07:39:09;;;;;;;6.65;4.40;;;3.10;99.90;;;;;;4947564;28;20122;-91
2022/10/09 07:41:35;;;;;;;6.20;4.07;;;3.10;99.90;;;;;;4956320;28;20031;-93
2022/10/09 07:44:01;;;;;;;8.13;3.60;;;3.20;99.90;;;;;;4951938;29;20047;-94
2022/10/09 07:46:28;;;;;;;8.05;4.38;;;3.30;99.90;;;;;;4954497;28;20031;-95
2022/10/09 07:48:53;;;;;;;6.85;3.65;;;3.40;99.90;;;;;;4957472;28;20031;-96
2022/10/09 07:51:24;;;;;;;10.80;4.97;;;3.40;99.90;;;;;;4948189;28;20085;-93
2022/10/09 07:53:52;;;;;;;6.25;3.67;;;3.50;99.90;;;;;;4966633;28;20012;-92
2022/10/09 07:56:20;;;;;;;7.38;3.75;;;3.60;99.90;;;;;;4969517;28;20032;-92
2022/10/09 07:58:57;;;;;;;12.95;5.32;;;3.70;99.90;;;;;;4971988;28;20030;-92
2022/10/09 08:01:24;;;;;;;9.98;5.40;;;3.80;99.90;;;;;;4988335;28;20059;-95
2022/10/09 08:03:49;;;;;;;11.13;4.32;;;3.80;99.90;;;;;;4991806;28;20025;-92
2022/10/09 08:06:17;;;;;;;9.68;4.65;;;3.90;99.90;;;;;;4979076;28;20026;-91
2022/10/09 08:08:44;;;;;;;10.23;4.95;;;4.00;99.90;;;;;;4997913;28;20050;-91
2022/10/09 08:11:15;;;;;;;11.88;6.45;;;4.10;99.90;;;;;;4982293;28;20038;-91
2022/10/09 08:13:42;;;;;;;7.47;4.75;;;4.20;99.90;;;;;;4978777;28;20027;-90
2022/10/09 08:16:08;;;;;;;9.18;4.25;;;4.30;99.90;;;;;;4980529;28;20015;-91
2022/10/09 08:18:35;;;;;;;19.15;7.60;;;4.50;99.90;;;;;;4965704;28;20039;-92
2022/10/09 08:21:06;;;;;;;19.52;5.70;;;4.60;99.90;;;;;;4995499;28;20043;-92
2022/10/09 08:23:35;;;;;;;14.32;6.45;;;4.80;99.90;;;;;;4974806;28;20050;-93
2022/10/09 08:26:01;;;;;;;22.02;7.57;;;4.90;99.90;;;;;;4979109;28;20022;-92
2022/10/09 08:28:27;;;;;;;15.82;6.45;;;5.10;99.90;;;;;;4967936;28;20030;-94
2022/10/09 08:30:53;;;;;;;14.57;5.25;;;5.30;99.90;;;;;;4973390;28;20082;-93
2022/10/09 08:33:20;;;;;;;18.52;7.05;;;5.40;99.90;;;;;;4972944;28;20050;-95
2022/10/09 08:35:50;;;;;;;20.42;7.10;;;5.60;99.90;;;;;;4975597;28;20023;-95
2022/10/09 08:38:16;;;;;;;17.80;5.20;;;5.70;99.90;;;;;;4972682;28;20027;-94
2022/10/09 08:40:56;;;;;;;15.20;4.03;;;5.80;99.90;;;;;;4975851;28;20058;-95
2022/10/09 08:43:31;;;;;;;21.70;5.70;;;6.10;99.90;;;;;;4969926;28;20062;-94
2022/10/09 08:46:02;;;;;;;14.75;6.55;;;6.30;99.90;;;;;;4962780;28;20022;-94
2022/10/09 08:48:34;;;;;;;15.90;4.35;;;6.60;99.90;;;;;;4996627;28;20117;-90
2022/10/09 08:51:01;;;;;;;9.13;3.15;;;6.80;99.90;;;;;;4975917;28;20015;-89
2022/10/09 08:53:37;;;;;;;14.32;3.58;;;7.00;99.90;;;;;;4981336;28;20038;-91
2022/10/09 08:56:08;;;;;;;16.15;4.05;;;7.20;99.90;;;;;;4993715;28;20019;-90
2022/10/09 08:58:38;;;;;;;8.20;3.90;;;7.50;99.90;;;;;;4998344;28;20046;-92
2022/10/09 09:01:18;;;;;;;10.55;3.22;;;7.80;99.90;;;;;;4977147;28;20049;-92
2022/10/09 09:03:51;;;;;;;;;;;8.00;99.90;;;;;;4976519;28;20038;-93
2022/10/09 09:06:32;;;;;;;12.75;2.58;;;8.30;99.90;;;;;;4981335;28;19898;-94
2022/10/09 09:08:57;;;;;;;12.25;2.72;;;8.40;99.90;;;;;;4974539;28;20053;-95
2022/10/09 09:11:43;;;;;;;10.40;2.40;;;8.50;99.90;;;;;;4966203;28;20094;-94
2022/10/09 09:14:41;;;;;;;11.07;2.20;;;8.70;99.90;;;;;;4964182;28;20031;-93
2022/10/09 09:17:47;;;;;;;10.50;2.83;;;8.80;99.90;;;;;;4964703;28;20099;-94
2022/10/09 09:20:33;;;;;;;9.25;2.20;;;9.00;99.90;;;;;;4969360;28;20034;-95
2022/10/09 09:23:00;;;;;;;8.07;2.42;;;9.10;99.90;;;;;;4962449;28;20099;-94
2022/10/09 09:25:34;;;;;;;15.07;2.47;;;9.20;99.90;;;;;;4968531;28;20030;-95
2022/10/09 09:28:13;;;;;;;15.88;2.78;;;9.30;99.90;;;;;;4981431;28;20072;-95
2022/10/09 09:30:47;;;;;;;11.90;1.85;;;9.40;99.90;;;;;;4957830;28;20026;-95
2022/10/09 09:33:23;;;;;;;12.93;2.28;;;9.50;99.90;;;;;;4957521;28;20030;-96
2022/10/09 09:36:21;;;;;;;5.00;1.70;;;9.60;99.90;;;;;;4968676;28;20018;-93
2022/10/09 09:38:48;;;;;;;11.93;2.05;;;9.70;99.90;;;;;;4975504;28;20026;-91
2022/10/09 09:41:14;;;;;;;12.35;2.90;;;9.80;99.90;;;;;;4975934;28;20035;-95
2022/10/09 09:43:41;;;;;;;6.15;1.77;;;9.90;99.90;;;;;;4972157;28;20069;-93
2022/10/09 09:46:32;;;;;;;5.78;1.70;;;10.00;99.90;;;;;;4978722;28;20139;-93
2022/10/09 09:48:57;;;;;;;11.10;2.17;;;10.20;99.90;;;;;;4969433;28;20035;-95
2022/10/09 09:51:30;;;;;;;9.00;2.03;;;10.40;99.90;;;;;;4977228;28;20054;-93
2022/10/09 09:54:15;;;;;;;9.02;2.08;;;10.50;99.90;;;;;;4983690;28;20055;-95
2022/10/09 09:56:43;;;;;;;7.55;1.83;;;10.60;99.90;;;;;;4968467;28;20023;-94
2022/10/09 09:59:31;;;;;;;7.15;1.65;;;10.70;99.90;;;;;;4984348;28;20027;-93
2022/10/09 10:02:18;;;;;;;8.60;1.70;;;10.80;99.90;;;;;;4984656;28;20035;-92
2022/10/09 10:04:51;;;;;;;5.68;1.65;;;10.90;99.90;;;;;;4989763;28;20031;-91
2022/10/09 10:07:30;;;;;;;4.80;1.38;;;11.00;99.90;;;;;;4977188;28;20011;-94
2022/10/09 10:10:18;;;;;;;12.65;1.83;;;11.10;99.90;;;;;;4979393;28;20019;-91
2022/10/09 10:12:47;;;;;;;10.77;1.90;;;11.20;99.90;;;;;;4974931;28;20027;-91
2022/10/09 10:15:22;;;;;;;8.00;1.95;;;11.40;99.90;;;;;;4993817;28;20038;-95
2022/10/09 10:17:54;;;;;;;5.88;2.25;;;11.70;99.90;;;;;;4974058;28;20102;-96
2022/10/09 10:20:20;;;;;;;10.32;1.65;;;11.90;99.90;;;;;;4991138;28;20054;-94
2022/10/09 10:22:52;;;;;;;4.45;1.60;;;12.20;99.90;;;;;;4975134;28;20078;-91
2022/10/09 10:25:22;;;;;;;6.68;2.15;;;12.40;99.90;;;;;;4997777;28;20066;-90
2022/10/09 10:27:51;;;;;;;9.93;1.80;;;12.60;99.90;;;;;;4995605;28;20034;-95
2022/10/09 10:30:18;;;;;;;9.13;2.10;;;12.90;99.90;;;;;;4982469;28;20011;-91
2022/10/09 10:32:54;;;;;;;7.45;1.63;;;13.10;99.90;;;;;;4997256;28;20091;-95
2022/10/09 10:35:26;;;;;;;5.55;1.83;;;13.30;99.90;;;;;;4982276;28;20046;-95
2022/10/09 10:38:17;;;;;;;9.07;2.00;;;13.60;99.90;;;;;;4998934;28;20015;-95
2022/10/09 10:41:00;;;;;;;8.80;1.63;;;13.90;99.90;;;;;;4968824;28;20027;-94
2022/10/09 10:43:46;;;;;;;9.48;2.08;;;14.20;99.90;;;;;;4972523;28;20031;-94
2022/10/09 10:46:28;;;;;;;11.93;1.88;;;14.40;99.90;;;;;;4968818;28;20033;-95
2022/10/09 10:48:53;;;;;;;8.77;1.80;;;14.60;99.90;;;;;;4969150;28;20027;-95
2022/10/09 10:51:34;;;;;;;7.22;1.60;;;14.80;99.90;;;;;;4977079;28;20033;-92
2022/10/09 10:54:31;;;;;;;8.15;1.80;;;14.90;99.90;;;;;;4973581;28;20026;-94
2022/10/09 10:57:32;;;;;;;7.07;1.83;;;15.10;99.90;;;;;;4971048;28;20035;-94
2022/10/09 11:00:11;;;;;;;8.77;1.58;;;15.20;99.90;;;;;;4946983;29;20019;-94
2022/10/09 11:03:05;;;;;;;7.85;1.70;;;15.40;99.90;;;;;;4969410;29;20028;-95
2022/10/09 11:06:05;;;;;;;5.05;1.80;;;15.60;99.90;;;;;;4976658;29;20035;-93
2022/10/09 11:08:45;;;;;;;9.15;2.67;;;15.70;99.90;;;;;;4975977;28;20023;-94
2022/10/09 11:11:32;;;;;;;7.05;1.50;;;15.80;99.90;;;;;;4977256;28;20035;-92
2022/10/09 11:14:13;;;;;;;8.82;1.85;;;15.80;99.90;;;;;;4974158;28;20028;-96
2022/10/09 11:16:38;;;;;;;;;;;15.90;99.90;;;;;;4978162;29;20011;-95
2022/10/09 11:19:27;;;;;;;8.55;1.80;;;15.90;99.90;;;;;;4976001;29;19929;-94
2022/10/09 11:22:14;;;;;;;5.20;1.73;;;15.80;99.90;;;;;;4977345;28;20043;-95
2022/10/09 11:24:49;;;;;;;8.57;1.55;;;15.90;99.70;;;;;;4972768;28;20473;-93
2022/10/09 11:27:33;;;;;;;5.18;1.40;;;15.90;99.70;;;;;;4974348;28;20062;-96
2022/10/09 11:30:07;;;;;;;6.78;1.70;;;15.90;98.90;;;;;;4971460;29;20043;-95
2022/10/09 11:33:00;;;;;;;9.80;1.85;;;15.80;98.70;;;;;;4974194;29;20031;-93
2022/10/09 11:35:33;;;;;;;7.45;1.63;;;15.90;99.20;;;;;;4972902;28;20054;-94
2022/10/09 11:38:06;;;;;;;7.55;1.77;;;16.00;99.10;;;;;;4976548;28;20042;-93
2022/10/09 11:40:42;;;;;;;5.55;1.52;;;16.10;98.60;;;;;;4973104;29;20039;-93
2022/10/09 11:43:26;;;;;;;6.93;2.65;;;16.30;98.50;;;;;;4961731;28;20047;-94
2022/10/09 11:46:09;;;;;;;6.38;1.58;;;16.50;97.20;;;;;;4970858;29;20019;-95
2022/10/09 11:48:46;;;;;;;9.90;1.40;;;16.60;96.00;;;;;;4974718;28;20074;-94
2022/10/09 11:51:30;;;;;;;5.93;1.70;;;16.70;95.90;;;;;;4970029;28;20090;-93
2022/10/09 11:53:56;;;;;;;8.23;1.40;;;16.70;95.10;;;;;;4964586;29;20618;-94
2022/10/09 11:56:30;;;;;;;9.07;1.67;;;16.50;94.70;;;;;;4969735;29;20030;-94
2022/10/09 11:58:57;;;;;;;7.40;1.75;;;16.40;94.20;;;;;;4963605;29;20027;-95
2022/10/09 12:01:32;;;;;;;5.70;1.60;;;16.20;94.90;;;;;;4952757;28;20119;-95
2022/10/09 12:04:00;;;;;;;6.60;1.77;;;16.20;95.70;;;;;;4972334;28;20054;-93
2022/10/09 12:06:26;;;;;;;6.38;1.45;;;16.30;96.00;;;;;;4962990;29;20058;-95
2022/10/09 12:08:59;;;;;;;5.30;1.30;;;16.20;96.00;;;;;;4977310;28;20062;-94
2022/10/09 12:11:25;;;;;;;9.82;2.20;;;16.10;96.00;;;;;;4972185;28;20046;-92
2022/10/09 12:13:57;;;;;;;10.57;1.90;;;16.00;96.00;;;;;;4980327;28;20049;-94
2022/10/09 12:16:31;;;;;;;8.05;1.63;;;15.80;96.70;;;;;;4957153;29;20062;-96
2022/10/09 12:19:00;;;;;;;6.25;1.75;;;15.70;97.30;;;;;;4956994;29;20035;-93
2022/10/09 12:21:55;;;;;;;7.75;1.58;;;15.50;97.60;;;;;;4959934;29;20031;-94
2022/10/09 12:24:41;;;;;;;7.07;1.75;;;15.40;98.20;;;;;;4896859;29;20052;-96
2022/10/09 12:27:14;;;;;;;9.05;1.92;;;15.20;98.50;;;;;;4880793;29;20034;-95
2022/10/09 12:29:49;;;;;;;12.18;1.73;;;15.00;99.10;;;;;;4876349;29;20415;-94
2022/10/09 12:32:23;;;;;;;3.83;1.30;;;15.00;99.80;;;;;;4867503;29;20025;-95
2022/10/09 12:34:51;;;;;;;12.75;2.83;;;15.00;99.90;;;;;;4883186;29;20029;-93
2022/10/09 12:37:20;;;;;;;6.80;1.95;;;15.00;99.90;;;;;;4869835;29;20021;-95
2022/10/09 12:39:47;;;;;;;9.25;1.88;;;15.40;99.90;;;;;;4884083;29;20073;-96
2022/10/09 12:42:24;;;;;;;10.13;1.85;;;15.90;99.90;;;;;;4884735;29;20052;-94
2022/10/09 12:44:53;;;;;;;8.38;1.67;;;16.30;98.60;;;;;;4882218;29;20041;-95
2022/10/09 12:47:25;;;;;;;8.75;2.00;;;16.50;97.10;;;;;;4879673;29;20033;-96
2022/10/09 12:50:11;;;;;;;10.25;1.52;;;16.50;96.60;;;;;;4875549;29;20095;-96
2022/10/09 12:52:49;;;;;;;12.40;2.13;;;16.40;95.70;;;;;;4871049;29;20037;-95
2022/10/09 12:55:22;;;;;;;8.68;1.98;;;16.20;95.40;;;;;;4873509;29;20274;-94
2022/10/09 12:57:48;;;;;;;5.88;1.50;;;16.00;95.90;;;;;;4871499;29;20081;-96
2022/10/09 13:00:14;;;;;;;9.10;1.88;;;15.80;96.50;;;;;;4892432;29;20039;-95
2022/10/09 13:02:40;;;;;;;10.75;1.65;;;15.80;97.00;;;;;;4945732;29;20081;-95
2022/10/09 13:05:06;;;;;;;6.63;1.50;;;15.70;97.30;;;;;;4941591;29;20405;-96
2022/10/09 13:07:31;;;;;;;8.75;1.52;;;15.70;97.30;;;;;;4943535;29;20432;-96
2022/10/09 13:10:07;;;;;;;7.85;1.70;;;15.80;97.30;;;;;;4943713;29;20175;-96
2022/10/09 13:12:33;;;;;;;8.95;1.50;;;15.90;97.30;;;;;;4948495;29;20031;-96